createdAt,value
2019-02-12T00:00:51.288Z,0.00
2019-02-12T00:01:51.358Z,0.00
2019-02-12T00:02:51.383Z,0.00
2019-02-12T00:03:51.423Z,0.00
2019-02-12T00:04:51.452Z,0.00
2019-02-12T00:05:51.534Z,0.00
2019-02-12T00:06:51.539Z,0.00
2019-02-12T00:07:51.576Z,0.00
2019-02-12T00:08:51.618Z,0.00
2019-02-12T00:09:51.666Z,0.00
2019-02-12T00:10:51.719Z,0.00
2019-02-12T00:11:51.767Z,0.00
2019-02-12T00:12:51.808Z,0.00
2019-02-12T00:13:51.823Z,0.00
2019-02-12T00:14:51.863Z,0.00
2019-02-12T00:15:51.994Z,0.00
2019-02-12T00:16:51.982Z,0.00
2019-02-12T00:17:51.990Z,0.00
2019-02-12T00:18:52.026Z,0.00
2019-02-12T00:19:52.069Z,0.00
2019-02-12T00:20:52.115Z,0.00
2019-02-12T00:21:52.170Z,0.00
2019-02-12T00:22:52.198Z,0.00
2019-02-12T00:23:52.244Z,0.00
2019-02-12T00:24:52.276Z,0.00
2019-02-12T00:25:52.315Z,0.00
2019-02-12T00:26:52.373Z,0.00
2019-02-12T00:27:52.838Z,0.00
2019-02-12T00:28:52.446Z,0.00
2019-02-12T00:29:52.489Z,0.00
2019-02-12T00:30:52.519Z,0.00
2019-02-12T00:31:52.567Z,0.00
2019-02-12T00:32:52.632Z,0.00
2019-02-12T00:33:52.642Z,0.00
2019-02-12T00:34:52.684Z,0.00
2019-02-12T00:35:52.762Z,0.00
2019-02-12T00:36:52.799Z,0.00
2019-02-12T00:37:52.836Z,0.00
2019-02-12T00:38:52.857Z,0.00
2019-02-12T00:39:52.898Z,0.00
2019-02-12T00:40:52.929Z,0.00
2019-02-12T00:41:52.974Z,0.00
2019-02-12T00:42:53.035Z,0.00
2019-02-12T00:43:53.053Z,0.00
2019-02-12T00:44:53.093Z,0.00
2019-02-12T00:45:53.133Z,0.00
2019-02-12T00:46:53.175Z,0.00
2019-02-12T00:47:53.247Z,0.00
2019-02-12T00:48:53.260Z,0.00
2019-02-12T00:49:53.297Z,0.00
2019-02-12T00:50:53.341Z,0.00
2019-02-12T00:51:53.379Z,0.00
2019-02-12T00:52:53.439Z,0.00
2019-02-12T00:53:53.472Z,0.00
2019-02-12T00:54:53.504Z,0.00
2019-02-12T00:55:53.545Z,0.00
2019-02-12T00:56:53.581Z,0.00
2019-02-12T00:57:53.642Z,0.00
2019-02-12T00:58:53.698Z,0.00
2019-02-12T00:59:53.703Z,0.00
2019-02-12T01:00:53.751Z,0.00
2019-02-12T01:01:53.789Z,0.00
2019-02-12T01:02:53.828Z,0.00
2019-02-12T01:03:53.888Z,0.00
2019-02-12T01:04:53.909Z,0.00
2019-02-12T01:05:53.950Z,0.00
2019-02-12T01:06:53.990Z,0.00
2019-02-12T01:07:54.032Z,0.00
2019-02-12T01:08:54.098Z,0.00
2019-02-12T01:09:54.126Z,0.00
2019-02-12T01:10:54.156Z,0.00
2019-02-12T01:11:54.197Z,0.00
2019-02-12T01:12:54.238Z,0.00
2019-02-12T01:13:54.303Z,0.00
2019-02-12T01:14:54.346Z,0.00
2019-02-12T01:15:54.370Z,0.00
2019-02-12T01:16:54.412Z,0.00
2019-02-12T01:17:54.442Z,0.00
2019-02-12T01:18:54.484Z,0.00
2019-02-12T01:19:54.552Z,0.00
2019-02-12T01:20:54.570Z,0.00
2019-02-12T01:21:54.604Z,0.00
2019-02-12T01:22:54.647Z,0.00
2019-02-12T01:23:54.712Z,0.00
2019-02-12T01:24:54.748Z,0.00
2019-02-12T01:25:54.767Z,0.00
2019-02-12T01:26:54.845Z,0.00
2019-02-12T01:27:54.847Z,0.00
2019-02-12T01:28:54.902Z,0.00
2019-02-12T01:29:54.956Z,0.00
2019-02-12T01:30:54.977Z,0.00
2019-02-12T01:31:55.014Z,0.00
2019-02-12T01:32:55.066Z,0.00
2019-02-12T01:33:55.147Z,0.00
2019-02-12T01:34:55.161Z,0.00
2019-02-12T01:35:55.176Z,0.00
2019-02-12T01:36:55.215Z,0.00
2019-02-12T01:37:55.259Z,0.00
2019-02-12T01:38:55.299Z,0.00
2019-02-12T01:39:55.358Z,0.00
2019-02-12T01:40:55.447Z,0.00
2019-02-12T01:41:55.419Z,0.00
2019-02-12T01:42:55.461Z,0.00
2019-02-12T01:43:55.499Z,0.00
2019-02-12T01:44:55.558Z,0.00
2019-02-12T01:45:55.605Z,0.00
2019-02-12T01:46:55.621Z,0.00
2019-02-12T01:47:55.729Z,0.00
2019-02-12T01:48:55.735Z,0.00
2019-02-12T01:49:55.744Z,0.00
2019-02-12T01:50:55.803Z,0.00
2019-02-12T01:51:55.830Z,0.00
2019-02-12T01:52:55.865Z,0.00
2019-02-12T01:53:55.905Z,0.00
2019-02-12T01:54:55.959Z,0.00
2019-02-12T01:55:56.009Z,0.00
2019-02-12T01:56:56.025Z,0.00
2019-02-12T01:57:56.079Z,0.00
2019-02-12T01:58:56.107Z,0.00
2019-02-12T01:59:56.152Z,0.00
2019-02-12T02:00:56.213Z,0.00
2019-02-12T02:01:56.278Z,0.00
2019-02-12T02:02:56.283Z,0.00
2019-02-12T02:03:56.314Z,0.00
2019-02-12T02:04:56.360Z,0.00
2019-02-12T02:05:56.425Z,0.00
2019-02-12T02:06:56.458Z,0.00
2019-02-12T02:07:56.474Z,0.00
2019-02-12T02:08:56.521Z,0.00
2019-02-12T02:09:56.567Z,0.00
2019-02-12T02:10:56.598Z,0.00
2019-02-12T02:11:56.658Z,0.00
2019-02-12T02:12:56.683Z,0.00
2019-02-12T02:13:56.726Z,0.00
2019-02-12T02:14:56.768Z,0.00
2019-02-12T02:15:56.817Z,0.00
2019-02-12T02:16:56.865Z,0.00
2019-02-12T02:17:56.883Z,0.00
2019-02-12T02:18:56.929Z,0.00
2019-02-12T02:19:56.968Z,0.00
2019-02-12T02:20:57.002Z,0.00
2019-02-12T02:21:57.064Z,0.00
2019-02-12T02:22:57.105Z,0.00
2019-02-12T02:23:57.125Z,0.00
2019-02-12T02:24:57.205Z,0.00
2019-02-12T02:25:57.208Z,0.00
2019-02-12T02:26:57.268Z,0.00
2019-02-12T02:27:57.299Z,0.00
2019-02-12T02:28:57.338Z,0.00
2019-02-12T02:29:57.377Z,0.00
2019-02-12T02:30:57.431Z,0.00
2019-02-12T02:31:57.483Z,0.00
2019-02-12T02:32:57.491Z,0.00
2019-02-12T02:33:57.554Z,0.00
2019-02-12T02:34:57.574Z,0.00
2019-02-12T02:35:57.620Z,0.00
2019-02-12T02:36:57.676Z,0.00
2019-02-12T02:37:57.731Z,0.00
2019-02-12T02:38:57.791Z,0.00
2019-02-12T02:39:57.814Z,0.00
2019-02-12T02:40:57.817Z,0.00
2019-02-12T02:41:57.858Z,0.00
2019-02-12T02:42:57.920Z,0.00
2019-02-12T02:43:57.947Z,0.00
2019-02-12T02:44:58.041Z,0.00
2019-02-12T02:45:58.022Z,0.00
2019-02-12T02:46:58.082Z,0.00
2019-02-12T02:47:58.122Z,0.00
2019-02-12T02:48:58.140Z,0.00
2019-02-12T02:49:58.182Z,0.00
2019-02-12T02:50:58.224Z,0.00
2019-02-12T02:51:58.281Z,0.00
2019-02-12T02:52:58.370Z,0.00
2019-02-12T02:53:58.342Z,0.00
2019-02-12T02:54:58.384Z,0.00
2019-02-12T02:55:58.446Z,0.00
2019-02-12T02:56:58.472Z,0.00
2019-02-12T02:57:58.557Z,0.00
2019-02-12T02:58:58.546Z,0.00
2019-02-12T02:59:58.600Z,0.00
2019-02-12T03:00:58.627Z,0.00
2019-02-12T03:01:58.669Z,0.00
2019-02-12T03:02:58.734Z,0.00
2019-02-12T03:03:58.758Z,0.00
2019-02-12T03:04:58.817Z,0.00
2019-02-12T03:05:58.830Z,0.00
2019-02-12T03:06:58.969Z,0.00
2019-02-12T03:07:58.917Z,0.00
2019-02-12T03:08:58.977Z,0.00
2019-02-12T03:09:58.997Z,0.00
2019-02-12T03:10:59.036Z,0.00
2019-02-12T03:11:59.088Z,0.00
2019-02-12T03:12:59.150Z,0.00
2019-02-12T03:13:59.198Z,0.00
2019-02-12T03:14:59.208Z,0.00
2019-02-12T03:15:59.244Z,0.00
2019-02-12T03:16:59.282Z,0.00
2019-02-12T03:17:59.321Z,0.00
2019-02-12T03:18:59.384Z,0.00
2019-02-12T03:19:59.422Z,0.00
2019-02-12T03:20:59.442Z,0.00
2019-02-12T03:22:03.731Z,0.00
2019-02-12T03:22:59.528Z,0.00
2019-02-12T03:23:59.586Z,0.00
2019-02-12T03:24:59.619Z,0.00
2019-02-12T03:25:59.653Z,0.00
2019-02-12T03:26:59.693Z,0.00
2019-02-12T03:27:59.730Z,0.00
2019-02-12T03:28:59.793Z,0.00
2019-02-12T03:29:59.953Z,0.00
2019-02-12T03:30:59.866Z,0.00
2019-02-12T03:31:59.899Z,0.00
2019-02-12T03:32:59.942Z,0.00
2019-02-12T03:33:59.976Z,0.00
2019-02-12T03:35:00.033Z,0.00
2019-02-12T03:36:00.058Z,0.00
2019-02-12T03:37:00.098Z,0.00
2019-02-12T03:38:00.136Z,0.00
2019-02-12T03:39:00.181Z,0.00
2019-02-12T03:40:00.363Z,0.00
2019-02-12T03:41:00.263Z,0.00
2019-02-12T03:42:00.303Z,0.00
2019-02-12T03:43:00.344Z,0.00
2019-02-12T03:44:00.467Z,0.00
2019-02-12T03:45:00.545Z,0.00
2019-02-12T03:46:00.486Z,0.00
2019-02-12T03:47:00.506Z,0.00
2019-02-12T03:48:00.563Z,0.00
2019-02-12T03:49:00.589Z,0.00
2019-02-12T03:50:00.628Z,0.00
2019-02-12T03:51:00.754Z,0.00
2019-02-12T03:52:00.713Z,0.00
2019-02-12T03:53:00.749Z,0.00
2019-02-12T03:54:00.803Z,0.00
2019-02-12T03:55:00.834Z,0.00
2019-02-12T03:56:00.894Z,0.00
2019-02-12T03:57:00.914Z,0.00
2019-02-12T03:58:00.972Z,0.00
2019-02-12T03:59:01.010Z,0.00
2019-02-12T04:00:01.045Z,0.00
2019-02-12T04:01:01.098Z,0.00
2019-02-12T04:02:01.120Z,0.00
2019-02-12T04:03:01.160Z,0.00
2019-02-12T04:04:01.209Z,0.00
2019-02-12T04:05:01.416Z,0.00
2019-02-12T04:06:01.307Z,0.00
2019-02-12T04:07:01.336Z,0.00
2019-02-12T04:08:01.399Z,0.00
2019-02-12T04:09:01.409Z,0.00
2019-02-12T04:10:01.452Z,0.00
2019-02-12T04:11:01.749Z,0.00
2019-02-12T04:12:01.527Z,0.00
2019-02-12T04:13:01.568Z,0.00
2019-02-12T04:14:01.629Z,0.00
2019-02-12T04:15:01.651Z,0.00
2019-02-12T04:16:01.787Z,0.00
2019-02-12T04:17:01.730Z,0.00
2019-02-12T04:18:01.779Z,0.00
2019-02-12T04:19:01.826Z,0.00
2019-02-12T04:20:01.854Z,0.00
2019-02-12T04:21:01.915Z,0.00
2019-02-12T04:22:01.945Z,0.00
2019-02-12T04:23:01.975Z,0.00
2019-02-12T04:24:02.023Z,0.00
2019-02-12T04:25:02.092Z,0.00
2019-02-12T04:26:02.117Z,0.00
2019-02-12T04:27:02.162Z,0.00
2019-02-12T04:28:02.182Z,0.00
2019-02-12T04:29:02.227Z,0.00
2019-02-12T04:30:02.264Z,0.00
2019-02-12T04:31:02.311Z,0.00
2019-02-12T04:32:02.367Z,0.00
2019-02-12T04:33:02.388Z,0.00
2019-02-12T04:34:02.429Z,0.00
2019-02-12T04:35:02.471Z,0.00
2019-02-12T04:36:02.509Z,0.00
2019-02-12T04:37:02.569Z,0.00
2019-02-12T04:38:02.596Z,0.00
2019-02-12T04:39:02.641Z,0.00
2019-02-12T04:40:02.670Z,0.00
2019-02-12T04:41:02.719Z,0.00
2019-02-12T04:42:02.812Z,0.00
2019-02-12T04:43:02.798Z,0.00
2019-02-12T04:44:02.847Z,0.00
2019-02-12T04:45:02.874Z,0.00
2019-02-12T04:46:02.948Z,0.00
2019-02-12T04:47:02.983Z,0.00
2019-02-12T04:48:03.000Z,0.00
2019-02-12T04:49:03.083Z,0.00
2019-02-12T04:50:03.080Z,0.00
2019-02-12T04:51:03.122Z,0.00
2019-02-12T04:52:03.181Z,0.00
2019-02-12T04:53:03.207Z,0.00
2019-02-12T04:54:03.242Z,0.00
2019-02-12T04:55:03.282Z,0.00
2019-02-12T04:56:03.384Z,0.00
2019-02-12T04:57:03.396Z,0.00
2019-02-12T04:58:03.406Z,0.00
2019-02-12T04:59:03.469Z,0.00
2019-02-12T05:00:03.497Z,0.00
2019-02-12T05:01:03.562Z,0.00
2019-02-12T05:02:03.605Z,0.00
2019-02-12T05:03:03.695Z,0.00
2019-02-12T05:04:03.650Z,0.00
2019-02-12T05:05:03.688Z,0.00
2019-02-12T05:06:03.769Z,0.00
2019-02-12T05:07:03.772Z,0.00
2019-02-12T05:08:03.843Z,0.00
2019-02-12T05:09:03.865Z,0.00
2019-02-12T05:10:03.901Z,0.00
2019-02-12T05:11:03.936Z,0.00
2019-02-12T05:12:03.980Z,0.00
2019-02-12T05:13:04.040Z,0.00
2019-02-12T05:14:04.058Z,0.00
2019-02-12T05:15:04.108Z,0.00
2019-02-12T05:16:04.144Z,0.00
2019-02-12T05:17:04.238Z,0.00
2019-02-12T05:18:04.257Z,0.00
2019-02-12T05:19:04.261Z,0.00
2019-02-12T05:20:04.300Z,0.00
2019-02-12T05:21:04.345Z,0.00
2019-02-12T05:22:04.392Z,0.00
2019-02-12T05:23:04.443Z,0.00
2019-02-12T05:24:04.520Z,0.00
2019-02-12T05:25:04.504Z,0.00
2019-02-12T05:26:04.560Z,0.00
2019-02-12T05:27:04.586Z,0.00
2019-02-12T05:28:04.658Z,0.00
2019-02-12T05:29:04.664Z,0.00
2019-02-12T05:30:04.710Z,0.00
2019-02-12T05:31:04.757Z,0.00
2019-02-12T05:32:04.814Z,0.00
2019-02-12T05:33:04.855Z,0.00
2019-02-12T05:34:04.874Z,0.00
2019-02-12T05:35:04.916Z,0.00
2019-02-12T05:36:04.968Z,0.00
2019-02-12T05:37:05.000Z,0.00
2019-02-12T05:38:05.061Z,0.00
2019-02-12T05:39:05.101Z,0.00
2019-02-12T05:40:05.115Z,0.00
2019-02-12T05:41:05.155Z,0.00
2019-02-12T05:42:05.203Z,0.00
2019-02-12T05:43:05.252Z,0.00
2019-02-12T05:44:05.277Z,0.00
2019-02-12T05:45:05.317Z,0.00
2019-02-12T05:46:05.362Z,0.00
2019-02-12T05:47:07.001Z,0.00
2019-02-12T05:48:05.472Z,0.00
2019-02-12T05:49:05.501Z,0.00
2019-02-12T05:50:05.521Z,0.00
2019-02-12T05:51:05.567Z,0.00
2019-02-12T05:52:05.599Z,0.00
2019-02-12T05:53:06.760Z,0.00
2019-02-12T05:54:05.709Z,0.00
2019-02-12T05:55:05.717Z,0.00
2019-02-12T05:56:06.305Z,0.00
2019-02-12T05:57:05.822Z,0.00
2019-02-12T05:58:05.837Z,0.00
2019-02-12T05:59:05.914Z,0.00
2019-02-12T06:00:05.932Z,0.00
2019-02-12T06:01:05.964Z,0.00
2019-02-12T06:02:06.004Z,0.00
2019-02-12T06:03:06.044Z,0.00
2019-02-12T06:04:06.113Z,0.00
2019-02-12T06:05:06.142Z,0.00
2019-02-12T06:06:06.164Z,0.00
2019-02-12T06:07:06.202Z,0.00
2019-02-12T06:08:06.248Z,0.00
2019-02-12T06:09:06.323Z,0.00
2019-02-12T06:10:06.344Z,0.00
2019-02-12T06:11:06.376Z,0.00
2019-02-12T06:12:06.410Z,0.00
2019-02-12T06:13:06.454Z,0.00
2019-02-12T06:14:06.493Z,0.00
2019-02-12T06:15:06.568Z,0.00
2019-02-12T06:16:06.567Z,0.00
2019-02-12T06:17:06.618Z,0.00
2019-02-12T06:18:06.684Z,0.00
2019-02-12T06:19:06.743Z,0.00
2019-02-12T06:20:06.740Z,0.00
2019-02-12T06:21:06.778Z,0.00
2019-02-12T06:22:06.891Z,0.00
2019-02-12T06:23:06.855Z,0.00
2019-02-12T06:24:06.944Z,0.00
2019-02-12T06:25:08.020Z,0.00
2019-02-12T06:26:06.976Z,0.00
2019-02-12T06:27:07.013Z,0.00
2019-02-12T06:28:07.055Z,0.00
2019-02-12T06:29:07.198Z,0.00
2019-02-12T06:30:07.171Z,0.00
2019-02-12T06:31:07.185Z,0.00
2019-02-12T06:32:07.214Z,5.63
2019-02-12T06:33:07.890Z,5.63
2019-02-12T06:34:07.298Z,5.63
2019-02-12T06:35:07.360Z,5.63
2019-02-12T06:36:07.429Z,5.63
2019-02-12T06:37:09.389Z,5.63
2019-02-12T06:38:07.463Z,5.63
2019-02-12T06:39:07.497Z,11.25
2019-02-12T06:40:07.567Z,11.25
2019-02-12T06:41:07.611Z,11.25
2019-02-12T06:42:07.624Z,11.25
2019-02-12T06:43:07.658Z,11.25
2019-02-12T06:44:07.703Z,11.25
2019-02-12T06:45:07.737Z,11.25
2019-02-12T06:46:07.800Z,16.88
2019-02-12T06:47:07.818Z,16.88
2019-02-12T06:48:07.869Z,16.88
2019-02-12T06:49:07.904Z,22.50
2019-02-12T06:50:07.943Z,22.50
2019-02-12T06:51:08.008Z,22.50
2019-02-12T06:52:08.028Z,22.50
2019-02-12T06:53:12.466Z,22.50
2019-02-12T06:54:08.096Z,22.50
2019-02-12T06:55:08.137Z,28.13
2019-02-12T06:56:08.201Z,28.13
2019-02-12T06:57:08.216Z,28.13
2019-02-12T06:58:08.259Z,28.13
2019-02-12T06:59:08.357Z,28.13
2019-02-12T07:00:08.351Z,33.75
2019-02-12T07:01:08.422Z,33.75
2019-02-12T07:02:08.424Z,39.38
2019-02-12T07:03:08.457Z,39.38
2019-02-12T07:04:08.498Z,45.00
2019-02-12T07:05:08.594Z,45.00
2019-02-12T07:06:08.644Z,45.00
2019-02-12T07:07:08.631Z,50.63
2019-02-12T07:08:08.664Z,56.25
2019-02-12T07:09:08.698Z,56.25
2019-02-12T07:10:08.747Z,56.25
2019-02-12T07:11:08.800Z,61.88
2019-02-12T07:12:08.853Z,61.88
2019-02-12T07:13:08.877Z,61.88
2019-02-12T07:14:08.925Z,61.88
2019-02-12T07:15:08.947Z,67.50
2019-02-12T07:16:08.979Z,67.50
2019-02-12T07:17:09.045Z,73.13
2019-02-12T07:18:09.080Z,73.13
2019-02-12T07:19:09.104Z,73.13
2019-02-12T07:20:09.150Z,73.13
2019-02-12T07:21:09.179Z,73.13
2019-02-12T07:22:09.244Z,67.50
2019-02-12T07:23:09.264Z,67.50
2019-02-12T07:24:09.362Z,67.50
2019-02-12T07:25:09.346Z,73.13
2019-02-12T07:26:09.398Z,73.13
2019-02-12T07:27:09.466Z,78.75
2019-02-12T07:28:09.474Z,78.75
2019-02-12T07:29:09.501Z,84.38
2019-02-12T07:30:09.546Z,84.38
2019-02-12T07:31:09.582Z,84.38
2019-02-12T07:32:09.660Z,78.75
2019-02-12T07:33:13.376Z,78.75
2019-02-12T07:34:09.707Z,73.13
2019-02-12T07:35:09.753Z,73.13
2019-02-12T07:36:09.822Z,78.75
2019-02-12T07:37:09.829Z,78.75
2019-02-12T07:38:09.892Z,84.38
2019-02-12T07:39:09.909Z,84.38
2019-02-12T07:40:09.950Z,84.38
2019-02-12T07:41:18.451Z,78.75
2019-02-12T07:42:10.049Z,78.75
2019-02-12T07:43:10.106Z,78.75
2019-02-12T07:44:10.114Z,78.75
2019-02-12T07:45:10.154Z,78.75
2019-02-12T07:46:10.202Z,78.75
2019-02-12T07:47:10.262Z,78.75
2019-02-12T07:48:10.307Z,78.75
2019-02-12T07:49:10.314Z,84.38
2019-02-12T07:50:10.355Z,84.38
2019-02-12T07:51:10.398Z,84.38
2019-02-12T07:52:10.450Z,78.75
2019-02-12T07:53:10.507Z,90.00
2019-02-12T07:54:10.518Z,84.38
2019-02-12T07:55:10.563Z,90.00
2019-02-12T07:56:10.689Z,95.63
2019-02-12T07:57:10.657Z,106.88
2019-02-12T07:58:10.703Z,112.50
2019-02-12T07:59:10.746Z,112.50
2019-02-12T08:00:10.769Z,106.88
2019-02-12T08:01:10.812Z,101.25
2019-02-12T08:02:10.860Z,95.63
2019-02-12T08:03:10.999Z,95.63
2019-02-12T08:04:10.955Z,90.00
2019-02-12T08:05:10.975Z,90.00
2019-02-12T08:06:11.011Z,90.00
2019-02-12T08:07:11.063Z,95.63
2019-02-12T08:08:11.102Z,95.63
2019-02-12T08:09:11.163Z,95.63
2019-02-12T08:10:11.280Z,95.63
2019-02-12T08:11:11.227Z,95.63
2019-02-12T08:12:11.262Z,106.88
2019-02-12T08:13:11.311Z,112.50
2019-02-12T08:14:11.369Z,118.13
2019-02-12T08:15:11.405Z,129.38
2019-02-12T08:16:11.434Z,129.38
2019-02-12T08:17:11.466Z,135.00
2019-02-12T08:18:11.505Z,129.38
2019-02-12T08:19:11.592Z,118.13
2019-02-12T08:20:11.615Z,112.50
2019-02-12T08:21:11.632Z,118.13
2019-02-12T08:22:14.048Z,123.75
2019-02-12T08:23:11.724Z,135.00
2019-02-12T08:24:11.767Z,146.25
2019-02-12T08:25:11.822Z,157.50
2019-02-12T08:26:11.907Z,163.13
2019-02-12T08:27:11.890Z,163.13
2019-02-12T08:28:11.919Z,163.13
2019-02-12T08:29:11.982Z,163.13
2019-02-12T08:30:12.037Z,163.13
2019-02-12T08:31:12.055Z,157.50
2019-02-12T08:32:12.119Z,146.25
2019-02-12T08:33:12.155Z,140.63
2019-02-12T08:34:12.170Z,140.63
2019-02-12T08:35:12.229Z,146.25
2019-02-12T08:36:12.265Z,151.88
2019-02-12T08:37:12.302Z,163.13
2019-02-12T08:38:12.338Z,180.00
2019-02-12T08:39:12.402Z,185.63
2019-02-12T08:40:12.446Z,191.25
2019-02-12T08:41:12.470Z,196.88
2019-02-12T08:42:12.563Z,185.63
2019-02-12T08:43:12.545Z,180.00
2019-02-12T08:44:12.692Z,191.25
2019-02-12T08:45:12.647Z,219.38
2019-02-12T08:46:12.691Z,241.88
2019-02-12T08:47:12.711Z,241.88
2019-02-12T08:48:12.754Z,241.88
2019-02-12T08:49:12.804Z,253.13
2019-02-12T08:50:12.858Z,258.75
2019-02-12T08:51:12.908Z,253.13
2019-02-12T08:52:13.787Z,258.75
2019-02-12T08:53:12.965Z,270.00
2019-02-12T08:54:13.009Z,270.00
2019-02-12T08:55:13.051Z,253.13
2019-02-12T08:56:13.137Z,241.88
2019-02-12T08:57:13.141Z,247.50
2019-02-12T08:58:13.197Z,241.88
2019-02-12T08:59:13.227Z,225.00
2019-02-12T09:00:13.261Z,208.13
2019-02-12T09:01:13.337Z,191.25
2019-02-12T09:02:13.362Z,191.25
2019-02-12T09:03:13.382Z,191.25
2019-02-12T09:04:13.450Z,196.88
2019-02-12T09:05:13.484Z,202.50
2019-02-12T09:06:13.561Z,202.50
2019-02-12T09:07:13.562Z,196.88
2019-02-12T09:08:13.600Z,202.50
2019-02-12T09:09:13.659Z,208.13
2019-02-12T09:10:13.682Z,208.13
2019-02-12T09:11:13.740Z,196.88
2019-02-12T09:12:13.784Z,191.25
2019-02-12T09:13:13.846Z,185.63
2019-02-12T09:14:13.852Z,196.88
2019-02-12T09:15:13.896Z,208.13
2019-02-12T09:16:13.942Z,219.38
2019-02-12T09:17:14.004Z,219.38
2019-02-12T09:18:14.027Z,208.13
2019-02-12T09:19:14.060Z,202.50
2019-02-12T09:20:14.103Z,180.00
2019-02-12T09:21:14.147Z,174.38
2019-02-12T09:22:14.216Z,168.75
2019-02-12T09:23:14.342Z,180.00
2019-02-12T09:24:14.282Z,191.25
2019-02-12T09:25:14.314Z,196.88
2019-02-12T09:26:14.363Z,191.25
2019-02-12T09:27:14.421Z,174.38
2019-02-12T09:28:14.448Z,168.75
2019-02-12T09:29:14.487Z,168.75
2019-02-12T09:30:14.624Z,180.00
2019-02-12T09:31:14.577Z,185.63
2019-02-12T09:32:14.614Z,191.25
2019-02-12T09:33:14.676Z,196.88
2019-02-12T09:34:14.704Z,196.88
2019-02-12T09:35:14.758Z,191.25
2019-02-12T09:36:14.785Z,202.50
2019-02-12T09:37:14.854Z,236.25
2019-02-12T09:38:14.867Z,264.38
2019-02-12T09:39:14.915Z,270.00
2019-02-12T09:40:19.078Z,286.88
2019-02-12T09:41:15.000Z,309.38
2019-02-12T09:42:15.079Z,348.75
2019-02-12T09:43:15.078Z,382.50
2019-02-12T09:44:15.154Z,427.50
2019-02-12T09:45:15.172Z,455.63
2019-02-12T09:46:15.202Z,495.00
2019-02-12T09:47:15.268Z,540.00
2019-02-12T09:48:15.310Z,540.00
2019-02-12T09:49:15.332Z,528.75
2019-02-12T09:50:15.382Z,500.63
2019-02-12T09:51:15.439Z,478.13
2019-02-12T09:52:15.460Z,472.50
2019-02-12T09:53:15.521Z,478.13
2019-02-12T09:54:15.557Z,466.88
2019-02-12T09:55:15.732Z,416.25
2019-02-12T09:56:15.636Z,371.25
2019-02-12T09:57:15.680Z,360.00
2019-02-12T09:58:15.757Z,371.25
2019-02-12T09:59:15.764Z,399.38
2019-02-12T10:00:15.835Z,421.88
2019-02-12T10:01:15.847Z,405.00
2019-02-12T10:02:15.895Z,371.25
2019-02-12T10:03:15.961Z,354.38
2019-02-12T10:04:16.085Z,337.50
2019-02-12T10:05:16.040Z,326.25
2019-02-12T10:06:21.675Z,309.38
2019-02-12T10:07:16.109Z,303.75
2019-02-12T10:08:16.172Z,298.13
2019-02-12T10:09:16.217Z,298.13
2019-02-12T10:10:16.251Z,286.88
2019-02-12T10:11:16.333Z,286.88
2019-02-12T10:12:16.335Z,292.50
2019-02-12T10:13:16.393Z,309.38
2019-02-12T10:14:16.436Z,326.25
2019-02-12T10:15:16.471Z,360.00
2019-02-12T10:16:16.506Z,382.50
2019-02-12T10:17:16.545Z,388.13
2019-02-12T10:18:16.601Z,399.38
2019-02-12T10:19:16.659Z,405.00
2019-02-12T10:20:16.684Z,405.00
2019-02-12T10:21:16.736Z,410.63
2019-02-12T10:22:16.771Z,421.88
2019-02-12T10:23:16.811Z,433.13
2019-02-12T10:24:19.735Z,450.00
2019-02-12T10:25:16.898Z,455.63
2019-02-12T10:26:16.938Z,444.38
2019-02-12T10:27:16.992Z,444.38
2019-02-12T10:28:17.028Z,438.75
2019-02-12T10:29:17.105Z,438.75
2019-02-12T10:30:17.111Z,427.50
2019-02-12T10:31:17.160Z,410.63
2019-02-12T10:32:17.204Z,393.75
2019-02-12T10:33:17.246Z,388.13
2019-02-12T10:34:17.305Z,393.75
2019-02-12T10:35:17.336Z,382.50
2019-02-12T10:36:17.389Z,376.88
2019-02-12T10:37:17.424Z,371.25
2019-02-12T10:38:17.468Z,365.63
2019-02-12T10:39:17.529Z,360.00
2019-02-12T10:40:17.579Z,365.63
2019-02-12T10:41:17.596Z,365.63
2019-02-12T10:42:17.638Z,354.38
2019-02-12T10:43:17.681Z,354.38
2019-02-12T10:44:17.781Z,354.38
2019-02-12T10:45:17.787Z,360.00
2019-02-12T10:46:17.819Z,376.88
2019-02-12T10:47:17.858Z,388.13
2019-02-12T10:48:18.089Z,399.38
2019-02-12T10:49:17.948Z,382.50
2019-02-12T10:50:18.132Z,376.88
2019-02-12T10:51:18.035Z,365.63
2019-02-12T10:52:18.089Z,360.00
2019-02-12T10:53:18.133Z,354.38
2019-02-12T10:54:18.175Z,360.00
2019-02-12T10:55:18.246Z,360.00
2019-02-12T10:56:18.255Z,365.63
2019-02-12T10:57:18.379Z,371.25
2019-02-12T10:58:18.347Z,376.88
2019-02-12T10:59:18.401Z,382.50
2019-02-12T11:00:18.455Z,393.75
2019-02-12T11:01:18.474Z,410.63
2019-02-12T11:02:18.521Z,421.88
2019-02-12T11:03:18.561Z,433.13
2019-02-12T11:04:18.628Z,438.75
2019-02-12T11:05:18.673Z,466.88
2019-02-12T11:06:18.698Z,438.75
2019-02-12T11:07:18.739Z,416.25
2019-02-12T11:08:18.782Z,405.00
2019-02-12T11:09:18.824Z,405.00
2019-02-12T11:10:18.902Z,410.63
2019-02-12T11:11:18.923Z,427.50
2019-02-12T11:12:18.977Z,450.00
2019-02-12T11:13:19.003Z,478.13
2019-02-12T11:14:19.057Z,511.88
2019-02-12T11:15:19.120Z,517.50
2019-02-12T11:16:19.137Z,573.75
2019-02-12T11:17:19.188Z,613.13
2019-02-12T11:18:19.227Z,585.00
2019-02-12T11:19:19.270Z,579.38
2019-02-12T11:20:19.357Z,579.38
2019-02-12T11:21:19.363Z,590.63
2019-02-12T11:22:19.415Z,568.13
2019-02-12T11:23:19.453Z,523.13
2019-02-12T11:24:19.511Z,545.63
2019-02-12T11:25:19.585Z,596.25
2019-02-12T11:26:19.607Z,590.63
2019-02-12T11:27:19.636Z,585.00
2019-02-12T11:28:19.679Z,545.63
2019-02-12T11:29:19.724Z,506.25
2019-02-12T11:30:19.787Z,478.13
2019-02-12T11:31:19.970Z,450.00
2019-02-12T11:32:19.865Z,416.25
2019-02-12T11:33:19.903Z,371.25
2019-02-12T11:34:19.953Z,348.75
2019-02-12T11:35:19.992Z,331.88
2019-02-12T11:36:20.056Z,315.00
2019-02-12T11:37:20.086Z,298.13
2019-02-12T11:38:20.260Z,281.25
2019-02-12T11:39:20.175Z,270.00
2019-02-12T11:40:20.223Z,258.75
2019-02-12T11:41:20.278Z,247.50
2019-02-12T11:42:20.308Z,241.88
2019-02-12T11:43:20.367Z,230.63
2019-02-12T11:44:20.419Z,253.13
2019-02-12T11:45:20.528Z,213.75
2019-02-12T11:46:20.515Z,196.88
2019-02-12T11:47:20.531Z,185.63
2019-02-12T11:48:20.576Z,236.25
2019-02-12T11:49:20.626Z,208.13
2019-02-12T11:50:20.662Z,213.75
2019-02-12T11:51:20.726Z,236.25
2019-02-12T11:52:20.854Z,219.38
2019-02-12T11:53:20.814Z,219.38
2019-02-12T11:54:20.838Z,270.00
2019-02-12T11:55:20.883Z,303.75
2019-02-12T11:56:20.954Z,405.00
2019-02-12T11:57:21.039Z,416.25
2019-02-12T11:58:21.041Z,495.00
2019-02-12T11:59:21.106Z,545.63
2019-02-12T12:00:21.115Z,466.88
2019-02-12T12:01:21.157Z,483.75
2019-02-12T12:02:21.226Z,556.88
2019-02-12T12:03:21.240Z,500.63
2019-02-12T12:04:21.287Z,495.00
2019-02-12T12:05:21.332Z,511.88
2019-02-12T12:06:21.411Z,489.38
2019-02-12T12:07:21.448Z,416.25
2019-02-12T12:08:21.463Z,376.88
2019-02-12T12:09:21.508Z,371.25
2019-02-12T12:10:21.556Z,376.88
2019-02-12T12:11:21.599Z,388.13
2019-02-12T12:12:21.663Z,416.25
2019-02-12T12:13:21.690Z,455.63
2019-02-12T12:14:21.742Z,528.75
2019-02-12T12:15:21.796Z,551.25
2019-02-12T12:16:21.822Z,556.88
2019-02-12T12:17:23.083Z,613.13
2019-02-12T12:18:21.916Z,517.50
2019-02-12T12:19:22.014Z,489.38
2019-02-12T12:20:22.004Z,528.75
2019-02-12T12:21:22.052Z,573.75
2019-02-12T12:22:22.110Z,573.75
2019-02-12T12:23:22.170Z,573.75
2019-02-12T12:24:22.193Z,562.50
2019-02-12T12:25:22.228Z,545.63
2019-02-12T12:26:22.285Z,540.00
2019-02-12T12:27:22.322Z,523.13
2019-02-12T12:28:22.393Z,517.50
2019-02-12T12:29:22.412Z,511.88
2019-02-12T12:30:22.462Z,500.63
2019-02-12T12:31:22.504Z,483.75
2019-02-12T12:32:22.547Z,461.25
2019-02-12T12:33:22.624Z,444.38
2019-02-12T12:34:22.657Z,438.75
2019-02-12T12:35:22.699Z,433.13
2019-02-12T12:36:22.743Z,433.13
2019-02-12T12:37:22.773Z,421.88
2019-02-12T12:38:22.876Z,405.00
2019-02-12T12:39:22.864Z,399.38
2019-02-12T12:40:22.917Z,399.38
2019-02-12T12:41:22.954Z,399.38
2019-02-12T12:42:23.000Z,393.75
2019-02-12T12:43:23.075Z,393.75
2019-02-12T12:44:23.115Z,393.75
2019-02-12T12:45:23.135Z,405.00
2019-02-12T12:46:23.178Z,416.25
2019-02-12T12:47:23.361Z,427.50
2019-02-12T12:48:23.281Z,433.13
2019-02-12T12:49:23.351Z,438.75
2019-02-12T12:50:23.383Z,438.75
2019-02-12T12:51:23.408Z,433.13
2019-02-12T12:52:23.460Z,427.50
2019-02-12T12:53:23.495Z,427.50
2019-02-12T12:54:23.647Z,427.50
2019-02-12T12:55:25.260Z,433.13
2019-02-12T12:56:23.634Z,433.13
2019-02-12T12:57:23.676Z,421.88